KMVL Airport Information

Runway Information
Runway 01 Length 3701 ft width 75 ft
Elevation 713 ft Threshold 0 ft Heading 358
Runway 19 Length 3701 ft Width 75 ft
Elevation 731 ft Threshold 0 ft Heading 178
Airport Frequencies
Type ASOS Name ASOS Frequency 135.625 MHZ
Type CNTR Name BOSTON CNT Frequency 135.7 MHZ
Type UNIC Name CTAF/UNICO Frequency 122.8 MHZ
Airport Navaids
Airport Weather Information & NOTAM
ADDS - METARS form results

(1744 UTC 20 January 2022)
Data provider http://aviationweather.gov/metar/data/
 
METAR text: KMVL 201654Z AUTO 35011KT 10SM CLR M13/M18 A3021 RMK AO2 UPE1558 SLP244 P0000 T11281183
Conditions at: KMVL (MORRISVILLE , VT, US) observed 1654 UTC 20 January 2022
Temperature: -12.8°C ( 9°F)
Dewpoint: -18.3°C (-1°F) [RH = 63%]
Pressure (altimeter): 30.21 inches Hg (1023.1 mb)
[Sea-level pressure: 1024.4 mb]
Winds: from the N (350 degrees) at 13 MPH (11 knots; 5.7 m/s)
Visibility: 10 or more miles (16+ km)
Ceiling: at least 12,000 feet AGL
Clouds: sky clear below 12,000 feet AGL
Weather: automated observation with no human augmentation;
there may or may not be significant weather present at this time